sensor_id;sensor_type;location;lat;lon;timestamp;pressure;altitude;pressure_sealevel;temperature;humidity
5284;BME280;15377;48.540;9.268;2023-01-19T00:00:57;96371.53;;;-4.30;100.00
5284;BME280;15377;48.540;9.268;2023-01-19T00:03:22;96365.06;;;-4.32;100.00
5284;BME280;15377;48.540;9.268;2023-01-19T00:05:48;96368.19;;;-4.37;100.00
5284;BME280;15377;48.540;9.268;2023-01-19T00:08:14;96375.84;;;-4.36;100.00
5284;BME280;15377;48.540;9.268;2023-01-19T00:10:43;96371.31;;;-4.46;100.00
5284;BME280;15377;48.540;9.268;2023-01-19T00:13:09;96373.69;;;-4.51;100.00
5284;BME280;15377;48.540;9.268;2023-01-19T00:15:35;96334.84;;;-4.80;100.00
5284;BME280;15377;48.540;9.268;2023-01-19T00:18:00;96375.13;;;-4.43;100.00
5284;BME280;15377;48.540;9.268;2023-01-19T00:20:25;96371.66;;;-4.40;100.00
5284;BME280;15377;48.540;9.268;2023-01-19T00:22:51;96381.69;;;-4.48;100.00
5284;BME280;15377;48.540;9.268;2023-01-19T00:25:16;96378.72;;;-4.20;100.00
5284;BME280;15377;48.540;9.268;2023-01-19T00:27:42;96380.69;;;-4.24;100.00
5284;BME280;15377;48.540;9.268;2023-01-19T00:30:16;96389.16;;;-4.29;100.00
5284;BME280;15377;48.540;9.268;2023-01-19T00:32:42;96393.19;;;-4.44;100.00
5284;BME280;15377;48.540;9.268;2023-01-19T00:35:08;96396.63;;;-4.47;100.00
5284;BME280;15377;48.540;9.268;2023-01-19T00:37:33;96403.53;;;-4.46;100.00
5284;BME280;15377;48.540;9.268;2023-01-19T00:39:58;96396.41;;;-4.63;100.00
5284;BME280;15377;48.540;9.268;2023-01-19T00:42:24;96405.72;;;-4.34;100.00
5284;BME280;15377;48.540;9.268;2023-01-19T00:45:09;96391.75;;;-4.18;100.00
5284;BME280;15377;48.540;9.268;2023-01-19T00:47:35;96409.13;;;-3.93;100.00
5284;BME280;15377;48.540;9.268;2023-01-19T00:50:00;96399.09;;;-3.89;100.00
5284;BME280;15377;48.540;9.268;2023-01-19T00:52:25;96400.16;;;-3.83;100.00
5284;BME280;15377;48.540;9.268;2023-01-19T00:54:51;96381.81;;;-3.88;100.00
5284;BME280;15377;48.540;9.268;2023-01-19T00:57:16;96392.81;;;-3.79;100.00
5284;BME280;15377;48.540;9.268;2023-01-19T00:59:43;96390.94;;;-3.82;100.00
5284;BME280;15377;48.540;9.268;2023-01-19T01:02:08;96391.31;;;-3.80;100.00
5284;BME280;15377;48.540;9.268;2023-01-19T01:04:35;96380.19;;;-3.82;100.00
5284;BME280;15377;48.540;9.268;2023-01-19T01:07:01;96398.91;;;-3.75;100.00
5284;BME280;15377;48.540;9.268;2023-01-19T01:09:26;96403.50;;;-3.72;100.00
5284;BME280;15377;48.540;9.268;2023-01-19T01:11:52;96404.28;;;-3.75;100.00
5284;BME280;15377;48.540;9.268;2023-01-19T01:14:17;96396.69;;;-3.80;100.00
5284;BME280;15377;48.540;9.268;2023-01-19T01:16:43;96406.25;;;-3.79;100.00
5284;BME280;15377;48.540;9.268;2023-01-19T01:19:08;96409.66;;;-3.75;100.00
5284;BME280;15377;48.540;9.268;2023-01-19T01:21:34;96398.19;;;-3.79;100.00
5284;BME280;15377;48.540;9.268;2023-01-19T01:24:00;96399.00;;;-3.82;100.00
5284;BME280;15377;48.540;9.268;2023-01-19T01:26:25;96403.56;;;-3.79;100.00
5284;BME280;15377;48.540;9.268;2023-01-19T01:28:50;96413.06;;;-3.71;100.00
5284;BME280;15377;48.540;9.268;2023-01-19T01:31:16;96403.19;;;-3.77;100.00
5284;BME280;15377;48.540;9.268;2023-01-19T01:33:41;96406.63;;;-3.77;100.00
5284;BME280;15377;48.540;9.268;2023-01-19T01:36:07;96400.13;;;-3.79;100.00
5284;BME280;15377;48.540;9.268;2023-01-19T01:38:33;96404.38;;;-3.82;100.00
5284;BME280;15377;48.540;9.268;2023-01-19T01:40:58;96409.63;;;-3.71;100.00
5284;BME280;15377;48.540;9.268;2023-01-19T01:43:50;96404.25;;;-3.71;100.00
5284;BME280;15377;48.540;9.268;2023-01-19T01:46:18;96401.97;;;-3.73;100.00
5284;BME280;15377;48.540;9.268;2023-01-19T01:48:51;96401.59;;;-3.75;100.00
5284;BME280;15377;48.540;9.268;2023-01-19T01:51:30;96408.91;;;-3.75;100.00
5284;BME280;15377;48.540;9.268;2023-01-19T01:56:38;96422.03;;;-3.81;100.00
5284;BME280;15377;48.540;9.268;2023-01-19T01:59:06;96420.03;;;-4.10;100.00
5284;BME280;15377;48.540;9.268;2023-01-19T02:01:34;96408.69;;;-4.25;100.00
5284;BME280;15377;48.540;9.268;2023-01-19T02:04:18;96417.91;;;-4.26;100.00
5284;BME280;15377;48.540;9.268;2023-01-19T02:06:44;96421.81;;;-4.30;100.00
5284;BME280;15377;48.540;9.268;2023-01-19T02:09:31;96421.09;;;-4.38;100.00
5284;BME280;15377;48.540;9.268;2023-01-19T02:12:17;96418.75;;;-4.32;100.00
5284;BME280;15377;48.540;9.268;2023-01-19T02:15:01;96429.31;;;-4.15;100.00
5284;BME280;15377;48.540;9.268;2023-01-19T02:17:27;96433.16;;;-4.16;100.00
5284;BME280;15377;48.540;9.268;2023-01-19T02:19:52;96432.72;;;-4.11;100.00
5284;BME280;15377;48.540;9.268;2023-01-19T02:22:30;96423.94;;;-4.15;100.00
5284;BME280;15377;48.540;9.268;2023-01-19T02:25:02;96433.16;;;-4.16;100.00
5284;BME280;15377;48.540;9.268;2023-01-19T02:27:27;96430.81;;;-4.14;100.00
5284;BME280;15377;48.540;9.268;2023-01-19T02:29:53;96426.25;;;-4.17;100.00
5284;BME280;15377;48.540;9.268;2023-01-19T02:32:19;96422.53;;;-4.30;100.00
5284;BME280;15377;48.540;9.268;2023-01-19T02:34:44;96436.59;;;-4.56;100.00
5284;BME280;15377;48.540;9.268;2023-01-19T02:37:12;96433.69;;;-4.72;100.00
5284;BME280;15377;48.540;9.268;2023-01-19T02:39:54;96437.19;;;-4.78;100.00
5284;BME280;15377;48.540;9.268;2023-01-19T02:42:26;96442.81;;;-4.62;100.00
5284;BME280;15377;48.540;9.268;2023-01-19T02:44:53;96427.75;;;-4.53;100.00
5284;BME280;15377;48.540;9.268;2023-01-19T02:47:19;96441.09;;;-4.42;100.00
5284;BME280;15377;48.540;9.268;2023-01-19T02:49:56;96445.31;;;-4.45;100.00
5284;BME280;15377;48.540;9.268;2023-01-19T02:52:22;96438.00;;;-4.85;100.00
5284;BME280;15377;48.540;9.268;2023-01-19T02:55:05;96442.78;;;-5.10;100.00
5284;BME280;15377;48.540;9.268;2023-01-19T03:06:21;96449.47;;;-5.39;100.00
5284;BME280;15377;48.540;9.268;2023-01-19T03:11:19;96453.66;;;-5.31;100.00
5284;BME280;15377;48.540;9.268;2023-01-19T03:14:01;96447.81;;;-5.19;100.00
5284;BME280;15377;48.540;9.268;2023-01-19T03:19:01;96445.78;;;-5.01;100.00
5284;BME280;15377;48.540;9.268;2023-01-19T03:21:29;96436.06;;;-4.81;100.00
5284;BME280;15377;48.540;9.268;2023-01-19T03:24:01;96454.47;;;-4.83;100.00
5284;BME280;15377;48.540;9.268;2023-01-19T03:26:31;96449.97;;;-5.00;100.00
5284;BME280;15377;48.540;9.268;2023-01-19T03:29:01;96449.78;;;-5.26;100.00
5284;BME280;15377;48.540;9.268;2023-01-19T03:31:29;96457.91;;;-5.44;100.00
5284;BME280;15377;48.540;9.268;2023-01-19T03:33:59;96467.84;;;-5.37;100.00
5284;BME280;15377;48.540;9.268;2023-01-19T03:36:34;96466.31;;;-5.38;100.00
5284;BME280;15377;48.540;9.268;2023-01-19T03:39:01;96461.81;;;-5.59;100.00
5284;BME280;15377;48.540;9.268;2023-01-19T03:41:30;96468.63;;;-5.40;100.00
5284;BME280;15377;48.540;9.268;2023-01-19T03:43:57;96472.06;;;-5.40;100.00
5284;BME280;15377;48.540;9.268;2023-01-19T03:46:23;96467.09;;;-5.38;100.00
5284;BME280;15377;48.540;9.268;2023-01-19T03:48:50;96465.38;;;-5.11;100.00
5284;BME280;15377;48.540;9.268;2023-01-19T03:51:16;96460.22;;;-4.84;100.00
5284;BME280;15377;48.540;9.268;2023-01-19T03:53:43;96462.03;;;-4.71;100.00
5284;BME280;15377;48.540;9.268;2023-01-19T03:56:21;96466.03;;;-4.96;100.00
5284;BME280;15377;48.540;9.268;2023-01-19T03:58:46;96467.63;;;-5.02;100.00
5284;BME280;15377;48.540;9.268;2023-01-19T04:01:12;96462.97;;;-4.95;100.00
5284;BME280;15377;48.540;9.268;2023-01-19T04:03:39;96458.78;;;-4.99;100.00
5284;BME280;15377;48.540;9.268;2023-01-19T04:06:05;96451.44;;;-4.92;100.00
5284;BME280;15377;48.540;9.268;2023-01-19T04:08:31;96445.06;;;-5.05;100.00
5284;BME280;15377;48.540;9.268;2023-01-19T04:10:57;96463.06;;;-5.09;100.00
5284;BME280;15377;48.540;9.268;2023-01-19T04:13:22;96463.09;;;-5.16;100.00
5284;BME280;15377;48.540;9.268;2023-01-19T04:15:48;96461.63;;;-5.24;100.00
5284;BME280;15377;48.540;9.268;2023-01-19T04:18:13;96454.09;;;-5.43;100.00
5284;BME280;15377;48.540;9.268;2023-01-19T04:20:38;96461.03;;;-5.56;100.00
5284;BME280;15377;48.540;9.268;2023-01-19T04:23:04;96469.47;;;-5.57;100.00
5284;BME280;15377;48.540;9.268;2023-01-19T04:25:29;96461.84;;;-5.66;100.00
5284;BME280;15377;48.540;9.268;2023-01-19T04:27:55;96464.91;;;-5.67;100.00
5284;BME280;15377;48.540;9.268;2023-01-19T04:30:22;96462.63;;;-5.69;100.00
5284;BME280;15377;48.540;9.268;2023-01-19T04:32:48;96466.47;;;-5.73;100.00
5284;BME280;15377;48.540;9.268;2023-01-19T04:35:13;96474.13;;;-5.79;100.00
5284;BME280;15377;48.540;9.268;2023-01-19T04:37:39;96475.94;;;-5.55;100.00
5284;BME280;15377;48.540;9.268;2023-01-19T04:40:05;96471.69;;;-5.42;100.00
5284;BME280;15377;48.540;9.268;2023-01-19T04:42:30;96475.03;;;-5.24;100.00
5284;BME280;15377;48.540;9.268;2023-01-19T04:44:56;96476.13;;;-5.11;100.00
5284;BME280;15377;48.540;9.268;2023-01-19T04:47:22;96471.13;;;-5.09;100.00
5284;BME280;15377;48.540;9.268;2023-01-19T04:49:47;96467.44;;;-5.36;100.00
5284;BME280;15377;48.540;9.268;2023-01-19T04:52:12;96478.25;;;-5.53;100.00
5284;BME280;15377;48.540;9.268;2023-01-19T04:54:38;96476.41;;;-5.67;100.00
5284;BME280;15377;48.540;9.268;2023-01-19T04:57:03;96485.56;;;-5.64;100.00
5284;BME280;15377;48.540;9.268;2023-01-19T04:59:28;96477.94;;;-5.73;100.00
5284;BME280;15377;48.540;9.268;2023-01-19T05:01:53;96474.13;;;-5.79;100.00
5284;BME280;15377;48.540;9.268;2023-01-19T05:04:20;96476.44;;;-5.77;100.00
5284;BME280;15377;48.540;9.268;2023-01-19T05:06:46;96477.06;;;-5.49;100.00
5284;BME280;15377;48.540;9.268;2023-01-19T05:09:12;96480.81;;;-5.29;100.00
5284;BME280;15377;48.540;9.268;2023-01-19T05:11:39;96481.56;;;-5.25;100.00
5284;BME280;15377;48.540;9.268;2023-01-19T05:14:05;96492.13;;;-4.97;100.00
5284;BME280;15377;48.540;9.268;2023-01-19T05:16:31;96489.66;;;-4.74;100.00
5284;BME280;15377;48.540;9.268;2023-01-19T05:18:56;96460.47;;;-4.68;100.00
5284;BME280;15377;48.540;9.268;2023-01-19T05:21:21;96489.06;;;-4.48;100.00
5284;BME280;15377;48.540;9.268;2023-01-19T05:23:47;96484.44;;;-4.40;100.00
5284;BME280;15377;48.540;9.268;2023-01-19T05:26:12;96487.56;;;-4.49;100.00
5284;BME280;15377;48.540;9.268;2023-01-19T05:28:37;96480.41;;;-4.66;100.00
5284;BME280;15377;48.540;9.268;2023-01-19T05:31:03;96494.19;;;-4.64;100.00
5284;BME280;15377;48.540;9.268;2023-01-19T05:33:28;96494.94;;;-4.60;100.00
5284;BME280;15377;48.540;9.268;2023-01-19T05:35:54;96490.19;;;-4.42;100.00
5284;BME280;15377;48.540;9.268;2023-01-19T05:38:20;96488.44;;;-4.22;100.00
5284;BME280;15377;48.540;9.268;2023-01-19T05:40:46;96499.06;;;-4.08;100.00
5284;BME280;15377;48.540;9.268;2023-01-19T05:43:13;96485.91;;;-3.95;100.00
5284;BME280;15377;48.540;9.268;2023-01-19T05:45:38;96491.28;;;-3.95;100.00
5284;BME280;15377;48.540;9.268;2023-01-19T05:48:05;96497.53;;;-4.05;100.00
5284;BME280;15377;48.540;9.268;2023-01-19T05:50:31;96510.97;;;-4.09;100.00
5284;BME280;15377;48.540;9.268;2023-01-19T05:52:57;96503.00;;;-4.16;100.00
5284;BME280;15377;48.540;9.268;2023-01-19T05:55:22;96502.63;;;-4.18;100.00
5284;BME280;15377;48.540;9.268;2023-01-19T05:57:48;96505.59;;;-4.09;100.00
5284;BME280;15377;48.540;9.268;2023-01-19T06:00:14;96509.81;;;-4.08;100.00
5284;BME280;15377;48.540;9.268;2023-01-19T06:02:39;96513.38;;;-4.18;100.00
5284;BME280;15377;48.540;9.268;2023-01-19T06:05:05;96516.19;;;-4.35;100.00
5284;BME280;15377;48.540;9.268;2023-01-19T06:07:30;96517.13;;;-4.56;100.00
5284;BME280;15377;48.540;9.268;2023-01-19T06:09:56;96525.72;;;-4.75;100.00
5284;BME280;15377;48.540;9.268;2023-01-19T06:12:22;96506.63;;;-4.87;100.00
5284;BME280;15377;48.540;9.268;2023-01-19T06:14:48;96530.25;;;-4.65;100.00
5284;BME280;15377;48.540;9.268;2023-01-19T06:17:13;96533.22;;;-4.56;100.00
5284;BME280;15377;48.540;9.268;2023-01-19T06:19:39;96520.22;;;-4.61;100.00
5284;BME280;15377;48.540;9.268;2023-01-19T06:22:05;96517.16;;;-4.59;100.00
5284;BME280;15377;48.540;9.268;2023-01-19T06:24:30;96533.28;;;-4.63;100.00
5284;BME280;15377;48.540;9.268;2023-01-19T06:26:55;96525.69;;;-4.71;100.00
5284;BME280;15377;48.540;9.268;2023-01-19T06:29:21;96529.88;;;-4.67;100.00
5284;BME280;15377;48.540;9.268;2023-01-19T06:31:47;96530.63;;;-4.66;100.00
5284;BME280;15377;48.540;9.268;2023-01-19T06:34:12;96530.59;;;-4.63;100.00
5284;BME280;15377;48.540;9.268;2023-01-19T06:36:38;96534.44;;;-4.64;100.00
5284;BME280;15377;48.540;9.268;2023-01-19T06:39:04;96537.13;;;-4.64;100.00
5284;BME280;15377;48.540;9.268;2023-01-19T06:41:31;96544.03;;;-4.66;100.00
5284;BME280;15377;48.540;9.268;2023-01-19T06:43:57;96541.78;;;-4.68;100.00
5284;BME280;15377;48.540;9.268;2023-01-19T06:46:23;96544.84;;;-4.73;100.00
5284;BME280;15377;48.540;9.268;2023-01-19T06:48:48;96542.53;;;-4.71;100.00
5284;BME280;15377;48.540;9.268;2023-01-19T06:51:13;96534.53;;;-4.78;100.00
5284;BME280;15377;48.540;9.268;2023-01-19T06:53:39;96536.09;;;-4.84;100.00
5284;BME280;15377;48.540;9.268;2023-01-19T06:56:04;96542.72;;;-4.95;100.00
5284;BME280;15377;48.540;9.268;2023-01-19T06:58:30;96544.94;;;-4.87;100.00
5284;BME280;15377;48.540;9.268;2023-01-19T07:01:00;96551.13;;;-4.93;100.00
5284;BME280;15377;48.540;9.268;2023-01-19T07:03:26;96546.47;;;-4.86;100.00
5284;BME280;15377;48.540;9.268;2023-01-19T07:05:52;96546.50;;;-4.96;100.00
5284;BME280;15377;48.540;9.268;2023-01-19T07:08:17;96555.69;;;-4.94;100.00
5284;BME280;15377;48.540;9.268;2023-01-19T07:10:43;96554.94;;;-4.91;100.00
5284;BME280;15377;48.540;9.268;2023-01-19T07:13:08;96559.47;;;-4.81;100.00
5284;BME280;15377;48.540;9.268;2023-01-19T07:15:34;96561.75;;;-4.76;100.00
5284;BME280;15377;48.540;9.268;2023-01-19T07:17:59;96560.19;;;-4.77;100.00
5284;BME280;15377;48.540;9.268;2023-01-19T07:20:29;96557.91;;;-4.75;100.00
5284;BME280;15377;48.540;9.268;2023-01-19T07:22:55;96562.13;;;-4.77;100.00
5284;BME280;15377;48.540;9.268;2023-01-19T07:25:21;96568.66;;;-4.78;100.00
5284;BME280;15377;48.540;9.268;2023-01-19T07:27:47;96561.34;;;-4.78;100.00
5284;BME280;15377;48.540;9.268;2023-01-19T07:30:13;96564.84;;;-4.81;100.00
5284;BME280;15377;48.540;9.268;2023-01-19T07:32:40;96567.53;;;-4.84;100.00
5284;BME280;15377;48.540;9.268;2023-01-19T07:35:09;96582.47;;;-4.80;100.00
5284;BME280;15377;48.540;9.268;2023-01-19T07:37:35;96581.78;;;-4.91;100.00
5284;BME280;15377;48.540;9.268;2023-01-19T07:40:00;96580.19;;;-4.88;100.00
5284;BME280;15377;48.540;9.268;2023-01-19T07:42:25;96587.06;;;-4.80;100.00
5284;BME280;15377;48.540;9.268;2023-01-19T07:44:51;96585.16;;;-4.80;100.00
5284;BME280;15377;48.540;9.268;2023-01-19T07:47:16;96588.63;;;-4.83;100.00
5284;BME280;15377;48.540;9.268;2023-01-19T07:49:42;96595.47;;;-4.75;100.00
5284;BME280;15377;48.540;9.268;2023-01-19T07:52:07;96589.34;;;-4.79;100.00
5284;BME280;15377;48.540;9.268;2023-01-19T07:54:33;96593.19;;;-4.80;100.00
5284;BME280;15377;48.540;9.268;2023-01-19T07:56:59;96586.28;;;-4.77;100.00
5284;BME280;15377;48.540;9.268;2023-01-19T07:59:27;96595.06;;;-4.73;100.00
5284;BME280;15377;48.540;9.268;2023-01-19T08:01:54;96605.03;;;-4.70;100.00
5284;BME280;15377;48.540;9.268;2023-01-19T08:04:20;96606.91;;;-4.64;100.00
5284;BME280;15377;48.540;9.268;2023-01-19T08:06:45;96587.00;;;-4.70;100.00
5284;BME280;15377;48.540;9.268;2023-01-19T08:09:11;96602.16;;;-4.42;100.00
5284;BME280;15377;48.540;9.268;2023-01-19T08:11:37;96599.78;;;-4.30;100.00
5284;BME280;15377;48.540;9.268;2023-01-19T08:14:03;96599.69;;;-4.16;100.00
5284;BME280;15377;48.540;9.268;2023-01-19T08:16:29;96604.59;;;-4.07;100.00
5284;BME280;15377;48.540;9.268;2023-01-19T08:18:54;96595.66;;;-3.94;100.00
5284;BME280;15377;48.540;9.268;2023-01-19T08:21:19;96595.78;;;-3.64;100.00
5284;BME280;15377;48.540;9.268;2023-01-19T08:23:52;96606.69;;;-3.41;100.00
5284;BME280;15377;48.540;9.268;2023-01-19T08:26:26;96613.34;;;-3.19;100.00
5284;BME280;15377;48.540;9.268;2023-01-19T08:28:53;96611.59;;;-2.99;100.00
5284;BME280;15377;48.540;9.268;2023-01-19T08:31:19;96600.88;;;-3.03;100.00
5284;BME280;15377;48.540;9.268;2023-01-19T08:33:44;96611.88;;;-2.90;100.00
5284;BME280;15377;48.540;9.268;2023-01-19T08:36:09;96618.53;;;-3.02;100.00
5284;BME280;15377;48.540;9.268;2023-01-19T08:38:35;96618.72;;;-3.19;100.00
5284;BME280;15377;48.540;9.268;2023-01-19T08:41:00;96607.38;;;-3.34;100.00
5284;BME280;15377;48.540;9.268;2023-01-19T08:43:26;96604.91;;;-3.58;100.00
5284;BME280;15377;48.540;9.268;2023-01-19T08:45:52;96617.97;;;-3.57;100.00
5284;BME280;15377;48.540;9.268;2023-01-19T08:48:21;96632.47;;;-3.47;100.00
5284;BME280;15377;48.540;9.268;2023-01-19T08:50:48;96607.19;;;-3.53;100.00
5284;BME280;15377;48.540;9.268;2023-01-19T08:53:14;96624.31;;;-3.37;100.00
5284;BME280;15377;48.540;9.268;2023-01-19T08:55:40;96631.13;;;-3.25;100.00
5284;BME280;15377;48.540;9.268;2023-01-19T08:58:06;96638.38;;;-3.22;100.00
5284;BME280;15377;48.540;9.268;2023-01-19T09:00:33;96638.72;;;-3.20;100.00
5284;BME280;15377;48.540;9.268;2023-01-19T09:03:00;96636.38;;;-3.15;100.00
5284;BME280;15377;48.540;9.268;2023-01-19T09:05:27;96637.75;;;-3.03;100.00
5284;BME280;15377;48.540;9.268;2023-01-19T09:07:52;96639.66;;;-3.00;100.00
5284;BME280;15377;48.540;9.268;2023-01-19T09:10:18;96646.19;;;-2.98;100.00
5284;BME280;15377;48.540;9.268;2023-01-19T09:12:44;96649.16;;;-2.89;100.00
5284;BME280;15377;48.540;9.268;2023-01-19T09:15:11;96647.41;;;-2.72;100.00
5284;BME280;15377;48.540;9.268;2023-01-19T09:17:38;96632.03;;;-2.15;100.00
5284;BME280;15377;48.540;9.268;2023-01-19T09:20:05;96654.28;;;0.29;100.00
5284;BME280;15377;48.540;9.268;2023-01-19T09:22:31;96655.97;;;2.69;100.00
5284;BME280;15377;48.540;9.268;2023-01-19T09:24:57;96669.03;;;4.82;100.00
5284;BME280;15377;48.540;9.268;2023-01-19T09:27:23;96677.84;;;6.53;100.00
5284;BME280;15377;48.540;9.268;2023-01-19T09:29:48;96666.00;;;7.64;98.74
5284;BME280;15377;48.540;9.268;2023-01-19T09:32:17;96673.41;;;7.87;83.81
5284;BME280;15377;48.540;9.268;2023-01-19T09:34:43;96676.50;;;7.42;84.37
5284;BME280;15377;48.540;9.268;2023-01-19T09:37:08;96676.88;;;8.60;88.55
5284;BME280;15377;48.540;9.268;2023-01-19T09:39:34;96684.75;;;9.87;79.33
5284;BME280;15377;48.540;9.268;2023-01-19T09:42:28;96678.56;;;9.92;63.78
5284;BME280;15377;48.540;9.268;2023-01-19T09:44:55;96678.22;;;10.97;57.42
5284;BME280;15377;48.540;9.268;2023-01-19T09:47:28;96671.97;;;11.50;51.52
5284;BME280;15377;48.540;9.268;2023-01-19T09:50:02;96670.81;;;11.73;50.14
5284;BME280;15377;48.540;9.268;2023-01-19T09:52:31;96666.16;;;10.95;49.83
5284;BME280;15377;48.540;9.268;2023-01-19T09:54:59;96663.22;;;10.31;53.05
5284;BME280;15377;48.540;9.268;2023-01-19T09:57:25;96662.81;;;9.47;52.57
5284;BME280;15377;48.540;9.268;2023-01-19T09:59:52;96647.91;;;8.25;58.20
5284;BME280;15377;48.540;9.268;2023-01-19T10:10:14;96642.84;;;4.75;84.61
5284;BME280;15377;48.540;9.268;2023-01-19T10:13:09;96665.59;;;4.42;93.62
5284;BME280;15377;48.540;9.268;2023-01-19T10:15:43;96662.63;;;4.09;97.45
5284;BME280;15377;48.540;9.268;2023-01-19T10:20:58;96647.63;;;3.53;100.00
5284;BME280;15377;48.540;9.268;2023-01-19T10:23:40;96655.13;;;3.49;100.00
5284;BME280;15377;48.540;9.268;2023-01-19T10:26:30;96662.41;;;3.52;100.00
5284;BME280;15377;48.540;9.268;2023-01-19T10:29:07;96659.34;;;3.07;100.00
5284;BME280;15377;48.540;9.268;2023-01-19T10:31:36;96652.75;;;2.96;100.00
5284;BME280;15377;48.540;9.268;2023-01-19T10:34:04;96647.88;;;2.91;100.00
5284;BME280;15377;48.540;9.268;2023-01-19T10:36:37;96650.56;;;3.03;100.00
5284;BME280;15377;48.540;9.268;2023-01-19T10:39:04;96654.03;;;3.04;100.00
5284;BME280;15377;48.540;9.268;2023-01-19T10:41:46;96650.84;;;2.71;100.00
5284;BME280;15377;48.540;9.268;2023-01-19T10:44:34;96656.00;;;2.44;100.00
5284;BME280;15377;48.540;9.268;2023-01-19T10:47:00;96646.16;;;2.25;100.00
5284;BME280;15377;48.540;9.268;2023-01-19T10:49:36;96647.22;;;2.15;100.00
5284;BME280;15377;48.540;9.268;2023-01-19T10:52:06;96648.00;;;2.28;100.00
5284;BME280;15377;48.540;9.268;2023-01-19T10:54:35;96651.03;;;2.30;100.00
5284;BME280;15377;48.540;9.268;2023-01-19T10:57:03;96639.09;;;2.15;100.00
5284;BME280;15377;48.540;9.268;2023-01-19T11:02:20;96632.03;;;2.18;100.00
5284;BME280;15377;48.540;9.268;2023-01-19T11:04:47;96645.50;;;2.09;100.00
5284;BME280;15377;48.540;9.268;2023-01-19T11:07:21;96638.44;;;1.86;100.00
5284;BME280;15377;48.540;9.268;2023-01-19T11:09:49;96647.78;;;2.10;100.00
5284;BME280;15377;48.540;9.268;2023-01-19T11:12:39;96624.78;;;2.02;100.00
5284;BME280;15377;48.540;9.268;2023-01-19T11:15:31;96640.84;;;2.09;100.00
5284;BME280;15377;48.540;9.268;2023-01-19T11:17:57;96622.38;;;1.92;100.00
5284;BME280;15377;48.540;9.268;2023-01-19T11:20:25;96644.84;;;2.17;100.00
5284;BME280;15377;48.540;9.268;2023-01-19T11:23:15;96646.59;;;2.11;100.00
5284;BME280;15377;48.540;9.268;2023-01-19T11:25:46;96642.69;;;2.00;100.00
5284;BME280;15377;48.540;9.268;2023-01-19T11:30:58;96645.81;;;1.98;100.00
5284;BME280;15377;48.540;9.268;2023-01-19T11:33:35;96644.63;;;1.87;100.00
5284;BME280;15377;48.540;9.268;2023-01-19T11:36:14;96632.03;;;1.68;100.00
5284;BME280;15377;48.540;9.268;2023-01-19T11:38:44;96613.47;;;1.66;100.00
5284;BME280;15377;48.540;9.268;2023-01-19T11:41:17;96636.66;;;1.67;100.00
5284;BME280;15377;48.540;9.268;2023-01-19T11:43:44;96620.75;;;1.82;100.00
5284;BME280;15377;48.540;9.268;2023-01-19T11:46:11;96629.84;;;2.00;100.00
5284;BME280;15377;48.540;9.268;2023-01-19T11:48:58;96634.72;;;2.30;100.00
5284;BME280;15377;48.540;9.268;2023-01-19T11:51:34;96634.72;;;2.30;100.00
5284;BME280;15377;48.540;9.268;2023-01-19T11:54:11;96636.38;;;2.40;100.00
5284;BME280;15377;48.540;9.268;2023-01-19T11:56:40;96632.13;;;2.39;100.00
5284;BME280;15377;48.540;9.268;2023-01-19T11:59:09;96621.16;;;2.43;100.00
5284;BME280;15377;48.540;9.268;2023-01-19T12:01:39;96616.81;;;2.33;100.00
5284;BME280;15377;48.540;9.268;2023-01-19T12:04:18;96620.75;;;2.32;100.00
5284;BME280;15377;48.540;9.268;2023-01-19T12:06:48;96627.78;;;2.29;100.00
5284;BME280;15377;48.540;9.268;2023-01-19T12:11:56;96622.56;;;2.35;100.00
5284;BME280;15377;48.540;9.268;2023-01-19T12:14:27;96630.94;;;2.40;100.00
5284;BME280;15377;48.540;9.268;2023-01-19T12:16:56;96628.22;;;2.53;100.00
5284;BME280;15377;48.540;9.268;2023-01-19T12:19:32;96613.97;;;2.49;100.00
5284;BME280;15377;48.540;9.268;2023-01-19T12:22:00;96626.00;;;2.60;100.00
5284;BME280;15377;48.540;9.268;2023-01-19T12:24:39;96614.50;;;2.56;100.00
5284;BME280;15377;48.540;9.268;2023-01-19T12:27:42;96626.22;;;2.53;100.00
5284;BME280;15377;48.540;9.268;2023-01-19T12:30:18;96625.78;;;2.67;100.00
5284;BME280;15377;48.540;9.268;2023-01-19T12:32:44;96622.06;;;2.74;100.00
5284;BME280;15377;48.540;9.268;2023-01-19T12:38:29;96625.03;;;2.54;100.00
5284;BME280;15377;48.540;9.268;2023-01-19T12:41:21;96640.56;;;2.66;100.00
5284;BME280;15377;48.540;9.268;2023-01-19T12:43:48;96630.56;;;2.63;100.00
5284;BME280;15377;48.540;9.268;2023-01-19T12:46:32;96634.31;;;2.78;100.00
5284;BME280;15377;48.540;9.268;2023-01-19T12:49:49;96635.41;;;2.81;100.00
5284;BME280;15377;48.540;9.268;2023-01-19T12:52:26;96636.41;;;2.74;100.00
5284;BME280;15377;48.540;9.268;2023-01-19T13:00:29;96639.31;;;2.33;100.00
5284;BME280;15377;48.540;9.268;2023-01-19T13:02:56;96634.94;;;2.23;100.00
5284;BME280;15377;48.540;9.268;2023-01-19T13:13:21;96632.25;;;2.23;100.00
5284;BME280;15377;48.540;9.268;2023-01-19T13:15:47;96631.69;;;2.28;100.00
5284;BME280;15377;48.540;9.268;2023-01-19T13:18:25;96619.56;;;2.20;100.00
5284;BME280;15377;48.540;9.268;2023-01-19T13:20:53;96633.31;;;2.38;100.00
5284;BME280;15377;48.540;9.268;2023-01-19T13:23:27;96628.09;;;2.44;100.00
5284;BME280;15377;48.540;9.268;2023-01-19T13:26:00;96622.53;;;2.47;100.00
5284;BME280;15377;48.540;9.268;2023-01-19T13:28:48;96621.91;;;2.43;100.00
5284;BME280;15377;48.540;9.268;2023-01-19T13:31:15;96626.06;;;2.35;100.00
5284;BME280;15377;48.540;9.268;2023-01-19T13:33:46;96629.97;;;2.34;100.00
5284;BME280;15377;48.540;9.268;2023-01-19T13:36:33;96622.66;;;2.44;100.00
5284;BME280;15377;48.540;9.268;2023-01-19T13:39:02;96624.09;;;2.48;100.00
5284;BME280;15377;48.540;9.268;2023-01-19T13:41:30;96623.13;;;2.42;100.00
5284;BME280;15377;48.540;9.268;2023-01-19T13:44:02;96625.81;;;2.42;100.00
5284;BME280;15377;48.540;9.268;2023-01-19T13:46:31;96627.47;;;2.40;100.00
5284;BME280;15377;48.540;9.268;2023-01-19T13:49:03;96626.16;;;2.44;100.00
5284;BME280;15377;48.540;9.268;2023-01-19T13:51:34;96624.09;;;2.36;100.00
5284;BME280;15377;48.540;9.268;2023-01-19T13:53:59;96627.47;;;2.15;100.00
5284;BME280;15377;48.540;9.268;2023-01-19T13:56:28;96614.78;;;1.99;100.00
5284;BME280;15377;48.540;9.268;2023-01-19T13:59:14;96627.38;;;1.93;100.00
5284;BME280;15377;48.540;9.268;2023-01-19T14:01:42;96618.69;;;1.86;100.00
5284;BME280;15377;48.540;9.268;2023-01-19T14:04:33;96622.28;;;1.83;100.00
5284;BME280;15377;48.540;9.268;2023-01-19T14:07:01;96618.38;;;1.84;100.00